sensor_id;sensor_type;location;lat;lon;timestamp;P1;durP1;ratioP1;P2;durP2;ratioP2
28353;SDS011;15603;50.878;8.036;2024-03-02T00:00:51;7.45;;;3.58;;
28353;SDS011;15603;50.878;8.036;2024-03-02T00:03:19;8.93;;;3.83;;
28353;SDS011;15603;50.878;8.036;2024-03-02T00:05:50;6.32;;;3.55;;
28353;SDS011;15603;50.878;8.036;2024-03-02T00:08:24;7.57;;;3.45;;
28353;SDS011;15603;50.878;8.036;2024-03-02T00:10:56;8.65;;;4.00;;
28353;SDS011;15603;50.878;8.036;2024-03-02T00:13:25;6.70;;;3.53;;
28353;SDS011;15603;50.878;8.036;2024-03-02T00:15:53;7.63;;;3.70;;
28353;SDS011;15603;50.878;8.036;2024-03-02T00:18:32;8.00;;;3.20;;
28353;SDS011;15603;50.878;8.036;2024-03-02T00:21:01;8.18;;;3.67;;
28353;SDS011;15603;50.878;8.036;2024-03-02T00:23:30;7.60;;;3.38;;
28353;SDS011;15603;50.878;8.036;2024-03-02T00:25:58;7.95;;;3.90;;
28353;SDS011;15603;50.878;8.036;2024-03-02T00:28:27;9.27;;;3.60;;
28353;SDS011;15603;50.878;8.036;2024-03-02T00:30:57;8.45;;;4.05;;
28353;SDS011;15603;50.878;8.036;2024-03-02T00:33:35;15.35;;;4.00;;
28353;SDS011;15603;50.878;8.036;2024-03-02T00:36:04;7.28;;;3.90;;
28353;SDS011;15603;50.878;8.036;2024-03-02T00:38:32;8.32;;;4.00;;
28353;SDS011;15603;50.878;8.036;2024-03-02T00:41:04;7.85;;;4.35;;
28353;SDS011;15603;50.878;8.036;2024-03-02T00:46:18;9.95;;;4.93;;
28353;SDS011;15603;50.878;8.036;2024-03-02T00:48:48;9.77;;;4.90;;
28353;SDS011;15603;50.878;8.036;2024-03-02T00:51:23;8.60;;;4.88;;
28353;SDS011;15603;50.878;8.036;2024-03-02T00:53:52;11.35;;;4.93;;
28353;SDS011;15603;50.878;8.036;2024-03-02T00:56:23;8.80;;;4.95;;
28353;SDS011;15603;50.878;8.036;2024-03-02T00:58:52;13.90;;;4.97;;
28353;SDS011;15603;50.878;8.036;2024-03-02T01:01:19;9.13;;;4.70;;
28353;SDS011;15603;50.878;8.036;2024-03-02T01:03:47;12.52;;;5.63;;
28353;SDS011;15603;50.878;8.036;2024-03-02T01:06:15;10.48;;;5.70;;
28353;SDS011;15603;50.878;8.036;2024-03-02T01:08:42;15.25;;;6.55;;
28353;SDS011;15603;50.878;8.036;2024-03-02T01:11:10;12.02;;;5.43;;
28353;SDS011;15603;50.878;8.036;2024-03-02T01:13:37;15.07;;;6.43;;
28353;SDS011;15603;50.878;8.036;2024-03-02T01:16:05;11.13;;;6.18;;
28353;SDS011;15603;50.878;8.036;2024-03-02T01:18:32;11.38;;;6.22;;
28353;SDS011;15603;50.878;8.036;2024-03-02T01:20:59;11.45;;;5.90;;
28353;SDS011;15603;50.878;8.036;2024-03-02T01:23:26;15.38;;;7.40;;
28353;SDS011;15603;50.878;8.036;2024-03-02T01:25:53;11.77;;;6.57;;
28353;SDS011;15603;50.878;8.036;2024-03-02T01:28:20;14.77;;;7.22;;
28353;SDS011;15603;50.878;8.036;2024-03-02T01:30:48;15.05;;;7.55;;
28353;SDS011;15603;50.878;8.036;2024-03-02T01:33:16;13.38;;;6.95;;
28353;SDS011;15603;50.878;8.036;2024-03-02T01:35:44;13.02;;;7.07;;
28353;SDS011;15603;50.878;8.036;2024-03-02T01:38:12;15.80;;;6.65;;
28353;SDS011;15603;50.878;8.036;2024-03-02T01:40:39;14.48;;;7.38;;
28353;SDS011;15603;50.878;8.036;2024-03-02T01:43:07;21.73;;;7.25;;
28353;SDS011;15603;50.878;8.036;2024-03-02T01:45:34;14.95;;;7.13;;
28353;SDS011;15603;50.878;8.036;2024-03-02T01:48:04;12.13;;;7.05;;
28353;SDS011;15603;50.878;8.036;2024-03-02T01:50:33;15.95;;;6.95;;
28353;SDS011;15603;50.878;8.036;2024-03-02T01:53:01;19.60;;;8.70;;
28353;SDS011;15603;50.878;8.036;2024-03-02T01:55:31;17.08;;;7.82;;
28353;SDS011;15603;50.878;8.036;2024-03-02T01:57:59;17.52;;;7.32;;
28353;SDS011;15603;50.878;8.036;2024-03-02T02:00:27;14.95;;;7.43;;
28353;SDS011;15603;50.878;8.036;2024-03-02T02:02:54;15.27;;;7.60;;
28353;SDS011;15603;50.878;8.036;2024-03-02T02:05:22;14.07;;;7.43;;
28353;SDS011;15603;50.878;8.036;2024-03-02T02:07:49;21.05;;;7.97;;
28353;SDS011;15603;50.878;8.036;2024-03-02T02:10:17;18.85;;;7.70;;
28353;SDS011;15603;50.878;8.036;2024-03-02T02:12:45;15.55;;;7.82;;
28353;SDS011;15603;50.878;8.036;2024-03-02T02:15:22;18.45;;;8.13;;
28353;SDS011;15603;50.878;8.036;2024-03-02T02:17:50;17.60;;;7.72;;
28353;SDS011;15603;50.878;8.036;2024-03-02T02:20:17;18.45;;;8.35;;
28353;SDS011;15603;50.878;8.036;2024-03-02T02:22:55;16.00;;;7.80;;
28353;SDS011;15603;50.878;8.036;2024-03-02T02:25:24;16.83;;;8.40;;
28353;SDS011;15603;50.878;8.036;2024-03-02T02:27:51;18.13;;;9.07;;
28353;SDS011;15603;50.878;8.036;2024-03-02T02:30:19;18.83;;;7.85;;
28353;SDS011;15603;50.878;8.036;2024-03-02T02:33:05;19.02;;;8.85;;
28353;SDS011;15603;50.878;8.036;2024-03-02T02:35:33;18.48;;;8.10;;
28353;SDS011;15603;50.878;8.036;2024-03-02T02:38:00;18.63;;;8.57;;
28353;SDS011;15603;50.878;8.036;2024-03-02T02:40:30;19.15;;;9.55;;
28353;SDS011;15603;50.878;8.036;2024-03-02T02:42:57;21.38;;;7.90;;
28353;SDS011;15603;50.878;8.036;2024-03-02T02:45:26;24.55;;;8.32;;
28353;SDS011;15603;50.878;8.036;2024-03-02T02:47:53;15.45;;;7.60;;
28353;SDS011;15603;50.878;8.036;2024-03-02T02:50:20;16.20;;;6.95;;
28353;SDS011;15603;50.878;8.036;2024-03-02T02:52:47;13.63;;;7.32;;
28353;SDS011;15603;50.878;8.036;2024-03-02T02:55:14;15.23;;;7.55;;
28353;SDS011;15603;50.878;8.036;2024-03-02T02:57:43;13.82;;;7.50;;
28353;SDS011;15603;50.878;8.036;2024-03-02T03:00:11;19.13;;;7.22;;
28353;SDS011;15603;50.878;8.036;2024-03-02T03:02:46;16.35;;;7.85;;
28353;SDS011;15603;50.878;8.036;2024-03-02T03:05:17;19.00;;;7.32;;
28353;SDS011;15603;50.878;8.036;2024-03-02T03:07:44;20.13;;;7.82;;
28353;SDS011;15603;50.878;8.036;2024-03-02T03:10:12;16.80;;;7.85;;
28353;SDS011;15603;50.878;8.036;2024-03-02T03:12:40;17.42;;;8.43;;
28353;SDS011;15603;50.878;8.036;2024-03-02T03:15:09;13.95;;;6.90;;
28353;SDS011;15603;50.878;8.036;2024-03-02T03:17:38;13.90;;;5.97;;
28353;SDS011;15603;50.878;8.036;2024-03-02T03:20:05;13.07;;;7.22;;
28353;SDS011;15603;50.878;8.036;2024-03-02T03:22:37;17.05;;;8.38;;
28353;SDS011;15603;50.878;8.036;2024-03-02T03:25:07;13.88;;;7.38;;
28353;SDS011;15603;50.878;8.036;2024-03-02T03:27:37;17.23;;;7.30;;
28353;SDS011;15603;50.878;8.036;2024-03-02T03:30:04;15.30;;;7.88;;
28353;SDS011;15603;50.878;8.036;2024-03-02T03:32:33;16.15;;;7.97;;
28353;SDS011;15603;50.878;8.036;2024-03-02T03:35:00;15.23;;;6.80;;
28353;SDS011;15603;50.878;8.036;2024-03-02T03:37:27;14.63;;;7.15;;
28353;SDS011;15603;50.878;8.036;2024-03-02T03:39:59;15.98;;;7.18;;
28353;SDS011;15603;50.878;8.036;2024-03-02T03:42:28;17.40;;;7.18;;
28353;SDS011;15603;50.878;8.036;2024-03-02T03:44:55;15.52;;;7.30;;
28353;SDS011;15603;50.878;8.036;2024-03-02T03:47:22;16.38;;;8.40;;
28353;SDS011;15603;50.878;8.036;2024-03-02T03:49:49;15.75;;;6.78;;
28353;SDS011;15603;50.878;8.036;2024-03-02T03:52:16;13.95;;;6.85;;
28353;SDS011;15603;50.878;8.036;2024-03-02T03:54:43;17.52;;;7.93;;
28353;SDS011;15603;50.878;8.036;2024-03-02T03:57:11;13.80;;;7.00;;
28353;SDS011;15603;50.878;8.036;2024-03-02T03:59:38;15.30;;;7.53;;
28353;SDS011;15603;50.878;8.036;2024-03-02T04:02:05;13.82;;;6.80;;
28353;SDS011;15603;50.878;8.036;2024-03-02T04:04:32;12.88;;;6.82;;
28353;SDS011;15603;50.878;8.036;2024-03-02T04:07:00;20.73;;;8.05;;
28353;SDS011;15603;50.878;8.036;2024-03-02T04:09:28;16.58;;;7.63;;
28353;SDS011;15603;50.878;8.036;2024-03-02T04:11:55;19.25;;;8.60;;
28353;SDS011;15603;50.878;8.036;2024-03-02T04:14:22;17.25;;;8.10;;
28353;SDS011;15603;50.878;8.036;2024-03-02T04:16:49;16.10;;;7.90;;
28353;SDS011;15603;50.878;8.036;2024-03-02T04:19:16;15.88;;;8.07;;
28353;SDS011;15603;50.878;8.036;2024-03-02T04:21:43;16.63;;;8.07;;
28353;SDS011;15603;50.878;8.036;2024-03-02T04:24:11;16.33;;;8.13;;
28353;SDS011;15603;50.878;8.036;2024-03-02T04:26:38;19.92;;;8.23;;
28353;SDS011;15603;50.878;8.036;2024-03-02T04:29:05;15.93;;;7.47;;
28353;SDS011;15603;50.878;8.036;2024-03-02T04:31:33;15.60;;;7.72;;
28353;SDS011;15603;50.878;8.036;2024-03-02T04:34:00;16.80;;;7.63;;
28353;SDS011;15603;50.878;8.036;2024-03-02T04:36:27;19.48;;;8.82;;
28353;SDS011;15603;50.878;8.036;2024-03-02T04:38:54;19.52;;;8.93;;
28353;SDS011;15603;50.878;8.036;2024-03-02T04:41:21;21.55;;;8.63;;
28353;SDS011;15603;50.878;8.036;2024-03-02T04:43:48;18.80;;;7.88;;
28353;SDS011;15603;50.878;8.036;2024-03-02T04:46:15;17.35;;;7.68;;
28353;SDS011;15603;50.878;8.036;2024-03-02T04:48:42;16.00;;;7.72;;
28353;SDS011;15603;50.878;8.036;2024-03-02T04:51:10;15.90;;;8.25;;
28353;SDS011;15603;50.878;8.036;2024-03-02T04:53:37;19.95;;;8.93;;
28353;SDS011;15603;50.878;8.036;2024-03-02T04:56:05;20.33;;;7.95;;
28353;SDS011;15603;50.878;8.036;2024-03-02T04:59:06;15.90;;;8.05;;
28353;SDS011;15603;50.878;8.036;2024-03-02T05:01:34;20.20;;;7.72;;
28353;SDS011;15603;50.878;8.036;2024-03-02T05:04:01;16.63;;;7.97;;
28353;SDS011;15603;50.878;8.036;2024-03-02T05:06:28;18.48;;;8.55;;
28353;SDS011;15603;50.878;8.036;2024-03-02T05:08:56;22.30;;;7.75;;
28353;SDS011;15603;50.878;8.036;2024-03-02T05:11:24;16.65;;;7.55;;
28353;SDS011;15603;50.878;8.036;2024-03-02T05:14:06;16.17;;;8.07;;
28353;SDS011;15603;50.878;8.036;2024-03-02T05:16:34;17.02;;;7.90;;
28353;SDS011;15603;50.878;8.036;2024-03-02T05:19:02;16.25;;;7.57;;
28353;SDS011;15603;50.878;8.036;2024-03-02T05:21:29;16.48;;;7.90;;
28353;SDS011;15603;50.878;8.036;2024-03-02T05:23:56;18.63;;;7.97;;
28353;SDS011;15603;50.878;8.036;2024-03-02T05:26:23;14.95;;;7.40;;
28353;SDS011;15603;50.878;8.036;2024-03-02T05:28:50;16.88;;;7.35;;
28353;SDS011;15603;50.878;8.036;2024-03-02T05:31:17;19.80;;;8.95;;
28353;SDS011;15603;50.878;8.036;2024-03-02T05:33:44;15.27;;;7.75;;
28353;SDS011;15603;50.878;8.036;2024-03-02T05:36:12;16.45;;;7.75;;
28353;SDS011;15603;50.878;8.036;2024-03-02T05:38:39;19.88;;;8.32;;
28353;SDS011;15603;50.878;8.036;2024-03-02T05:41:06;17.98;;;8.13;;
28353;SDS011;15603;50.878;8.036;2024-03-02T05:43:34;17.33;;;7.93;;
28353;SDS011;15603;50.878;8.036;2024-03-02T05:46:01;17.80;;;7.95;;
28353;SDS011;15603;50.878;8.036;2024-03-02T05:48:28;17.77;;;8.55;;
28353;SDS011;15603;50.878;8.036;2024-03-02T05:50:55;15.50;;;7.80;;
28353;SDS011;15603;50.878;8.036;2024-03-02T05:53:23;16.45;;;7.78;;
28353;SDS011;15603;50.878;8.036;2024-03-02T05:55:50;16.20;;;7.10;;
28353;SDS011;15603;50.878;8.036;2024-03-02T05:58:22;15.60;;;7.72;;
28353;SDS011;15603;50.878;8.036;2024-03-02T06:01:18;15.05;;;7.38;;
28353;SDS011;15603;50.878;8.036;2024-03-02T06:03:46;17.52;;;7.97;;
28353;SDS011;15603;50.878;8.036;2024-03-02T06:06:13;14.98;;;7.18;;
28353;SDS011;15603;50.878;8.036;2024-03-02T06:08:40;14.82;;;6.68;;
28353;SDS011;15603;50.878;8.036;2024-03-02T06:11:07;15.38;;;7.18;;
28353;SDS011;15603;50.878;8.036;2024-03-02T06:13:34;14.43;;;6.50;;
28353;SDS011;15603;50.878;8.036;2024-03-02T06:16:01;17.40;;;7.32;;
28353;SDS011;15603;50.878;8.036;2024-03-02T06:18:28;18.17;;;7.30;;
28353;SDS011;15603;50.878;8.036;2024-03-02T06:20:56;14.23;;;6.20;;
28353;SDS011;15603;50.878;8.036;2024-03-02T06:23:23;14.52;;;7.53;;
28353;SDS011;15603;50.878;8.036;2024-03-02T06:25:50;13.18;;;6.40;;
28353;SDS011;15603;50.878;8.036;2024-03-02T06:28:17;15.23;;;7.10;;
28353;SDS011;15603;50.878;8.036;2024-03-02T06:30:44;18.83;;;7.03;;
28353;SDS011;15603;50.878;8.036;2024-03-02T06:33:12;16.63;;;7.13;;
28353;SDS011;15603;50.878;8.036;2024-03-02T06:35:39;16.55;;;7.05;;
28353;SDS011;15603;50.878;8.036;2024-03-02T06:38:06;12.80;;;7.20;;
28353;SDS011;15603;50.878;8.036;2024-03-02T06:40:33;14.60;;;7.05;;
28353;SDS011;15603;50.878;8.036;2024-03-02T06:43:00;13.50;;;6.93;;
28353;SDS011;15603;50.878;8.036;2024-03-02T06:45:28;22.60;;;8.55;;
28353;SDS011;15603;50.878;8.036;2024-03-02T06:47:57;17.42;;;7.28;;
28353;SDS011;15603;50.878;8.036;2024-03-02T06:50:24;14.75;;;6.95;;
28353;SDS011;15603;50.878;8.036;2024-03-02T06:52:52;13.10;;;6.72;;
28353;SDS011;15603;50.878;8.036;2024-03-02T06:55:19;14.95;;;6.57;;
28353;SDS011;15603;50.878;8.036;2024-03-02T06:57:46;13.50;;;6.30;;
28353;SDS011;15603;50.878;8.036;2024-03-02T07:00:13;21.48;;;6.93;;
28353;SDS011;15603;50.878;8.036;2024-03-02T07:02:41;12.52;;;6.28;;
28353;SDS011;15603;50.878;8.036;2024-03-02T07:05:08;15.93;;;7.10;;
28353;SDS011;15603;50.878;8.036;2024-03-02T07:07:36;20.45;;;6.97;;
28353;SDS011;15603;50.878;8.036;2024-03-02T07:10:04;13.60;;;6.53;;
28353;SDS011;15603;50.878;8.036;2024-03-02T07:12:31;16.73;;;6.65;;
28353;SDS011;15603;50.878;8.036;2024-03-02T07:14:59;17.52;;;6.65;;
28353;SDS011;15603;50.878;8.036;2024-03-02T07:17:31;13.80;;;6.57;;
28353;SDS011;15603;50.878;8.036;2024-03-02T07:19:59;14.82;;;6.97;;
28353;SDS011;15603;50.878;8.036;2024-03-02T07:22:26;16.15;;;7.65;;
28353;SDS011;15603;50.878;8.036;2024-03-02T07:24:53;14.80;;;7.45;;
28353;SDS011;15603;50.878;8.036;2024-03-02T07:27:20;12.95;;;6.63;;
28353;SDS011;15603;50.878;8.036;2024-03-02T07:29:48;12.55;;;6.10;;
28353;SDS011;15603;50.878;8.036;2024-03-02T07:32:15;14.57;;;7.22;;
28353;SDS011;15603;50.878;8.036;2024-03-02T07:34:42;19.02;;;7.03;;
28353;SDS011;15603;50.878;8.036;2024-03-02T07:37:09;16.67;;;7.13;;
28353;SDS011;15603;50.878;8.036;2024-03-02T07:39:37;19.42;;;7.57;;
28353;SDS011;15603;50.878;8.036;2024-03-02T07:42:04;14.05;;;7.05;;
28353;SDS011;15603;50.878;8.036;2024-03-02T07:44:33;16.00;;;6.47;;
28353;SDS011;15603;50.878;8.036;2024-03-02T07:47:00;12.82;;;6.72;;
28353;SDS011;15603;50.878;8.036;2024-03-02T07:49:27;18.00;;;6.30;;
28353;SDS011;15603;50.878;8.036;2024-03-02T07:51:55;12.15;;;6.13;;
28353;SDS011;15603;50.878;8.036;2024-03-02T07:54:22;12.65;;;6.35;;
28353;SDS011;15603;50.878;8.036;2024-03-02T07:56:49;14.05;;;6.32;;
28353;SDS011;15603;50.878;8.036;2024-03-02T07:59:17;14.02;;;6.25;;
28353;SDS011;15603;50.878;8.036;2024-03-02T08:01:44;13.85;;;6.18;;
28353;SDS011;15603;50.878;8.036;2024-03-02T08:04:11;15.35;;;5.90;;
28353;SDS011;15603;50.878;8.036;2024-03-02T08:06:38;15.45;;;5.78;;
28353;SDS011;15603;50.878;8.036;2024-03-02T08:09:06;9.13;;;4.88;;
28353;SDS011;15603;50.878;8.036;2024-03-02T08:11:36;13.70;;;5.45;;
28353;SDS011;15603;50.878;8.036;2024-03-02T08:14:06;11.00;;;4.22;;
28353;SDS011;15603;50.878;8.036;2024-03-02T08:16:33;8.18;;;4.15;;
28353;SDS011;15603;50.878;8.036;2024-03-02T08:19:00;9.60;;;4.68;;
28353;SDS011;15603;50.878;8.036;2024-03-02T08:21:28;10.32;;;4.47;;
28353;SDS011;15603;50.878;8.036;2024-03-02T08:23:57;9.13;;;4.28;;
28353;SDS011;15603;50.878;8.036;2024-03-02T08:26:27;9.43;;;4.38;;
28353;SDS011;15603;50.878;8.036;2024-03-02T08:28:58;12.50;;;4.93;;
28353;SDS011;15603;50.878;8.036;2024-03-02T08:31:26;7.32;;;3.90;;
28353;SDS011;15603;50.878;8.036;2024-03-02T08:33:53;8.27;;;3.88;;
28353;SDS011;15603;50.878;8.036;2024-03-02T08:36:21;7.88;;;3.88;;
28353;SDS011;15603;50.878;8.036;2024-03-02T08:38:49;9.57;;;3.67;;
28353;SDS011;15603;50.878;8.036;2024-03-02T08:41:16;8.38;;;3.55;;
28353;SDS011;15603;50.878;8.036;2024-03-02T08:43:44;8.48;;;3.10;;
28353;SDS011;15603;50.878;8.036;2024-03-02T08:46:11;8.10;;;2.65;;
28353;SDS011;15603;50.878;8.036;2024-03-02T08:48:39;8.15;;;3.47;;
28353;SDS011;15603;50.878;8.036;2024-03-02T08:51:06;5.43;;;2.97;;
28353;SDS011;15603;50.878;8.036;2024-03-02T08:53:34;6.38;;;3.10;;
28353;SDS011;15603;50.878;8.036;2024-03-02T08:56:01;5.72;;;3.10;;
28353;SDS011;15603;50.878;8.036;2024-03-02T08:58:29;10.52;;;3.63;;
28353;SDS011;15603;50.878;8.036;2024-03-02T09:00:56;9.85;;;4.30;;
28353;SDS011;15603;50.878;8.036;2024-03-02T09:03:23;5.43;;;3.10;;
28353;SDS011;15603;50.878;8.036;2024-03-02T09:05:50;6.63;;;3.63;;
28353;SDS011;15603;50.878;8.036;2024-03-02T09:08:17;2.72;;;1.88;;
28353;SDS011;15603;50.878;8.036;2024-03-02T09:10:44;3.60;;;1.50;;
28353;SDS011;15603;50.878;8.036;2024-03-02T09:13:11;4.15;;;1.48;;
28353;SDS011;15603;50.878;8.036;2024-03-02T09:15:39;2.15;;;0.90;;
28353;SDS011;15603;50.878;8.036;2024-03-02T09:18:07;4.28;;;1.80;;
28353;SDS011;15603;50.878;8.036;2024-03-02T09:20:34;6.82;;;1.95;;
28353;SDS011;15603;50.878;8.036;2024-03-02T09:23:01;5.65;;;1.70;;
28353;SDS011;15603;50.878;8.036;2024-03-02T09:25:28;3.33;;;1.67;;
28353;SDS011;15603;50.878;8.036;2024-03-02T09:27:55;11.43;;;1.92;;
28353;SDS011;15603;50.878;8.036;2024-03-02T09:30:23;1.92;;;1.10;;
28353;SDS011;15603;50.878;8.036;2024-03-02T09:32:50;2.65;;;1.08;;
28353;SDS011;15603;50.878;8.036;2024-03-02T09:35:17;1.33;;;0.90;;
28353;SDS011;15603;50.878;8.036;2024-03-02T09:37:45;4.13;;;1.35;;
28353;SDS011;15603;50.878;8.036;2024-03-02T09:40:13;1.77;;;0.80;;
28353;SDS011;15603;50.878;8.036;2024-03-02T09:42:40;5.25;;;0.95;;
28353;SDS011;15603;50.878;8.036;2024-03-02T09:45:08;3.38;;;1.27;;
28353;SDS011;15603;50.878;8.036;2024-03-02T09:47:37;1.67;;;1.20;;
28353;SDS011;15603;50.878;8.036;2024-03-02T09:50:04;1.23;;;0.82;;
28353;SDS011;15603;50.878;8.036;2024-03-02T09:52:31;1.55;;;0.85;;
28353;SDS011;15603;50.878;8.036;2024-03-02T09:54:59;2.17;;;0.90;;
28353;SDS011;15603;50.878;8.036;2024-03-02T09:57:26;2.85;;;1.10;;
28353;SDS011;15603;50.878;8.036;2024-03-02T09:59:54;5.07;;;0.90;;
28353;SDS011;15603;50.878;8.036;2024-03-02T10:02:21;3.03;;;1.50;;
28353;SDS011;15603;50.878;8.036;2024-03-02T10:04:48;1.33;;;0.88;;
28353;SDS011;15603;50.878;8.036;2024-03-02T10:07:16;2.63;;;1.13;;
28353;SDS011;15603;50.878;8.036;2024-03-02T10:09:46;4.30;;;1.27;;
28353;SDS011;15603;50.878;8.036;2024-03-02T10:12:16;2.55;;;1.10;;
28353;SDS011;15603;50.878;8.036;2024-03-02T10:14:44;2.90;;;1.10;;
28353;SDS011;15603;50.878;8.036;2024-03-02T10:17:12;1.80;;;0.88;;
28353;SDS011;15603;50.878;8.036;2024-03-02T10:19:40;3.03;;;1.02;;
28353;SDS011;15603;50.878;8.036;2024-03-02T10:22:08;2.10;;;0.98;;
28353;SDS011;15603;50.878;8.036;2024-03-02T10:24:41;1.90;;;0.90;;
28353;SDS011;15603;50.878;8.036;2024-03-02T10:27:15;2.83;;;1.38;;
28353;SDS011;15603;50.878;8.036;2024-03-02T10:29:47;1.83;;;0.70;;
28353;SDS011;15603;50.878;8.036;2024-03-02T10:32:15;2.65;;;0.95;;
28353;SDS011;15603;50.878;8.036;2024-03-02T10:34:46;0.73;;;0.70;;
28353;SDS011;15603;50.878;8.036;2024-03-02T10:37:14;1.33;;;0.85;;
28353;SDS011;15603;50.878;8.036;2024-03-02T10:39:45;3.10;;;0.73;;
28353;SDS011;15603;50.878;8.036;2024-03-02T10:42:13;1.85;;;0.70;;
28353;SDS011;15603;50.878;8.036;2024-03-02T10:44:42;1.17;;;0.80;;
28353;SDS011;15603;50.878;8.036;2024-03-02T10:47:10;1.80;;;0.70;;
28353;SDS011;15603;50.878;8.036;2024-03-02T10:49:41;3.08;;;0.50;;
28353;SDS011;15603;50.878;8.036;2024-03-02T10:52:10;2.67;;;0.70;;
28353;SDS011;15603;50.878;8.036;2024-03-02T10:54:37;2.05;;;0.60;;
28353;SDS011;15603;50.878;8.036;2024-03-02T10:57:07;1.23;;;0.47;;
28353;SDS011;15603;50.878;8.036;2024-03-02T10:59:37;1.00;;;0.55;;
28353;SDS011;15603;50.878;8.036;2024-03-02T11:02:17;1.80;;;0.65;;
28353;SDS011;15603;50.878;8.036;2024-03-02T11:04:49;3.67;;;0.60;;
28353;SDS011;15603;50.878;8.036;2024-03-02T11:07:17;0.40;;;0.38;;
28353;SDS011;15603;50.878;8.036;2024-03-02T11:09:49;1.33;;;0.63;;
28353;SDS011;15603;50.878;8.036;2024-03-02T11:12:43;0.77;;;0.40;;
28353;SDS011;15603;50.878;8.036;2024-03-02T11:15:20;1.27;;;0.60;;
28353;SDS011;15603;50.878;8.036;2024-03-02T11:17:51;1.30;;;0.60;;
28353;SDS011;15603;50.878;8.036;2024-03-02T11:20:19;1.90;;;0.55;;
28353;SDS011;15603;50.878;8.036;2024-03-02T11:22:47;2.17;;;0.98;;
28353;SDS011;15603;50.878;8.036;2024-03-02T11:25:25;1.88;;;0.60;;
28353;SDS011;15603;50.878;8.036;2024-03-02T11:33:05;1.05;;;0.40;;
28353;SDS011;15603;50.878;8.036;2024-03-02T11:35:42;1.60;;;0.63;;
28353;SDS011;15603;50.878;8.036;2024-03-02T11:38:12;0.70;;;0.43;;
28353;SDS011;15603;50.878;8.036;2024-03-02T11:40:40;0.98;;;0.68;;
28353;SDS011;15603;50.878;8.036;2024-03-02T11:43:07;0.68;;;0.17;;
28353;SDS011;15603;50.878;8.036;2024-03-02T11:45:36;0.65;;;0.38;;
28353;SDS011;15603;50.878;8.036;2024-03-02T11:48:09;0.47;;;0.35;;
28353;SDS011;15603;50.878;8.036;2024-03-02T11:50:40;0.35;;;0.28;;
28353;SDS011;15603;50.878;8.036;2024-03-02T11:53:15;0.40;;;0.30;;
28353;SDS011;15603;50.878;8.036;2024-03-02T11:55:44;2.95;;;0.40;;
28353;SDS011;15603;50.878;8.036;2024-03-02T11:58:15;0.35;;;0.28;;
28353;SDS011;15603;50.878;8.036;2024-03-02T12:00:44;0.82;;;0.28;;
28353;SDS011;15603;50.878;8.036;2024-03-02T12:03:12;0.73;;;0.40;;
28353;SDS011;15603;50.878;8.036;2024-03-02T12:05:40;1.08;;;0.30;;
28353;SDS011;15603;50.878;8.036;2024-03-02T12:08:08;0.45;;;0.40;;
28353;SDS011;15603;50.878;8.036;2024-03-02T12:10:36;0.70;;;0.30;;
28353;SDS011;15603;50.878;8.036;2024-03-02T12:13:04;0.70;;;0.40;;
28353;SDS011;15603;50.878;8.036;2024-03-02T12:15:39;1.00;;;0.50;;
28353;SDS011;15603;50.878;8.036;2024-03-02T12:18:07;1.05;;;0.50;;
28353;SDS011;15603;50.878;8.036;2024-03-02T12:20:34;1.10;;;0.70;;
28353;SDS011;15603;50.878;8.036;2024-03-02T12:23:02;0.90;;;0.50;;
28353;SDS011;15603;50.878;8.036;2024-03-02T12:25:31;1.50;;;0.50;;
28353;SDS011;15603;50.878;8.036;2024-03-02T12:28:00;1.60;;;0.40;;
28353;SDS011;15603;50.878;8.036;2024-03-02T12:30:30;1.17;;;0.40;;
28353;SDS011;15603;50.878;8.036;2024-03-02T12:33:02;0.30;;;0.30;;
28353;SDS011;15603;50.878;8.036;2024-03-02T12:35:29;0.25;;;0.25;;
28353;SDS011;15603;50.878;8.036;2024-03-02T12:37:57;2.08;;;0.30;;
28353;SDS011;15603;50.878;8.036;2024-03-02T12:40:25;0.68;;;0.40;;
28353;SDS011;15603;50.878;8.036;2024-03-02T12:42:52;1.38;;;0.40;;
28353;SDS011;15603;50.878;8.036;2024-03-02T12:45:20;0.20;;;0.20;;
28353;SDS011;15603;50.878;8.036;2024-03-02T12:47:51;2.33;;;0.30;;
28353;SDS011;15603;50.878;8.036;2024-03-02T12:50:19;0.70;;;0.40;;
28353;SDS011;15603;50.878;8.036;2024-03-02T12:52:51;0.70;;;0.25;;
28353;SDS011;15603;50.878;8.036;2024-03-02T12:55:19;2.10;;;0.52;;
28353;SDS011;15603;50.878;8.036;2024-03-02T12:57:47;1.95;;;0.65;;
28353;SDS011;15603;50.878;8.036;2024-03-02T13:00:18;0.85;;;0.30;;
28353;SDS011;15603;50.878;8.036;2024-03-02T13:02:47;0.65;;;0.32;;
28353;SDS011;15603;50.878;8.036;2024-03-02T13:05:15;0.35;;;0.30;;
28353;SDS011;15603;50.878;8.036;2024-03-02T13:07:43;0.55;;;0.30;;
28353;SDS011;15603;50.878;8.036;2024-03-02T13:10:12;0.63;;;0.40;;
28353;SDS011;15603;50.878;8.036;2024-03-02T13:12:39;0.52;;;0.20;;
28353;SDS011;15603;50.878;8.036;2024-03-02T13:15:07;4.30;;;0.30;;
28353;SDS011;15603;50.878;8.036;2024-03-02T13:17:35;5.50;;;0.38;;
28353;SDS011;15603;50.878;8.036;2024-03-02T13:20:05;1.55;;;0.55;;
28353;SDS011;15603;50.878;8.036;2024-03-02T13:22:37;3.20;;;0.40;;
28353;SDS011;15603;50.878;8.036;2024-03-02T13:25:05;0.60;;;0.50;;
28353;SDS011;15603;50.878;8.036;2024-03-02T13:27:33;1.70;;;0.57;;
28353;SDS011;15603;50.878;8.036;2024-03-02T13:30:02;0.20;;;0.20;;
28353;SDS011;15603;50.878;8.036;2024-03-02T13:32:30;1.67;;;0.40;;
28353;SDS011;15603;50.878;8.036;2024-03-02T13:34:57;0.30;;;0.20;;
28353;SDS011;15603;50.878;8.036;2024-03-02T13:37:24;1.15;;;0.40;;
28353;SDS011;15603;50.878;8.036;2024-03-02T13:39:51;1.08;;;0.55;;
28353;SDS011;15603;50.878;8.036;2024-03-02T13:42:18;2.33;;;0.30;;
28353;SDS011;15603;50.878;8.036;2024-03-02T13:44:46;0.52;;;0.50;;
28353;SDS011;15603;50.878;8.036;2024-03-02T13:47:15;0.35;;;0.35;;
28353;SDS011;15603;50.878;8.036;2024-03-02T13:49:42;1.20;;;0.30;;
28353;SDS011;15603;50.878;8.036;2024-03-02T13:52:14;1.20;;;0.40;;
28353;SDS011;15603;50.878;8.036;2024-03-02T13:54:44;0.68;;;0.38;;
28353;SDS011;15603;50.878;8.036;2024-03-02T13:57:12;1.35;;;0.20;;
28353;SDS011;15603;50.878;8.036;2024-03-02T13:59:40;0.10;;;0.10;;
28353;SDS011;15603;50.878;8.036;2024-03-02T14:02:08;0.85;;;0.32;;
28353;SDS011;15603;50.878;8.036;2024-03-02T14:04:36;0.43;;;0.25;;
28353;SDS011;15603;50.878;8.036;2024-03-02T14:07:04;0.65;;;0.40;;
28353;SDS011;15603;50.878;8.036;2024-03-02T14:09:36;0.65;;;0.38;;
28353;SDS011;15603;50.878;8.036;2024-03-02T14:12:07;1.20;;;0.20;;
28353;SDS011;15603;50.878;8.036;2024-03-02T14:14:34;1.48;;;0.30;;
28353;SDS011;15603;50.878;8.036;2024-03-02T14:17:01;1.45;;;0.40;;
28353;SDS011;15603;50.878;8.036;2024-03-02T14:19:33;1.23;;;0.20;;
28353;SDS011;15603;50.878;8.036;2024-03-02T14:22:01;0.40;;;0.20;;
28353;SDS011;15603;50.878;8.036;2024-03-02T14:24:28;2.10;;;0.75;;
28353;SDS011;15603;50.878;8.036;2024-03-02T14:26:56;0.32;;;0.30;;
28353;SDS011;15603;50.878;8.036;2024-03-02T14:29:45;0.65;;;0.30;;
28353;SDS011;15603;50.878;8.036;2024-03-02T14:32:12;0.55;;;0.13;;
28353;SDS011;15603;50.878;8.036;2024-03-02T14:34:39;1.45;;;0.40;;
28353;SDS011;15603;50.878;8.036;2024-03-02T14:37:07;0.60;;;0.40;;
28353;SDS011;15603;50.878;8.036;2024-03-02T14:39:34;1.17;;;0.40;;
28353;SDS011;15603;50.878;8.036;2024-03-02T14:42:03;0.10;;;0.10;;
28353;SDS011;15603;50.878;8.036;2024-03-02T14:44:30;0.60;;;0.25;;
28353;SDS011;15603;50.878;8.036;2024-03-02T14:46:57;0.30;;;0.20;;
28353;SDS011;15603;50.878;8.036;2024-03-02T14:49:27;0.52;;;0.30;;
28353;SDS011;15603;50.878;8.036;2024-03-02T14:51:55;2.83;;;0.10;;
28353;SDS011;15603;50.878;8.036;2024-03-02T14:54:22;0.93;;;0.35;;
28353;SDS011;15603;50.878;8.036;2024-03-02T14:56:50;2.13;;;0.70;;